Time;durP1;ratioP1;P1;durP2;ratioP2;P2;SDS_P1;SDS_P2;PMS_P1;PMS_P2;Temp;Humidity;BMP_temperature;BMP_pressure;BME280_temperature;BME280_humidity;BME280_pressure;Samples;Min_cycle;Max_cycle;Signal;HPM_P1;HPM_P2
2022/12/11 00:01:17;;;;;;;7.63;5.68;;;;;;;17.49;40.63;101098.19;5045509;28;20033;-61
2022/12/11 00:03:43;;;;;;;8.20;5.38;;;;;;;17.49;40.70;101094.66;5040496;28;20537;-62
2022/12/11 00:06:10;;;;;;;8.38;5.85;;;;;;;17.48;40.64;101085.75;5044622;28;20029;-61
2022/12/11 00:08:36;;;;;;;8.70;5.47;;;;;;;17.48;40.63;101084.91;5042098;28;20030;-61
2022/12/11 00:11:02;;;;;;;7.97;4.97;;;;;;;17.48;40.45;101083.06;5036545;28;20036;-61
2022/12/11 00:13:27;;;;;;;6.68;4.72;;;;;;;17.47;40.50;101084.06;5045212;28;20038;-61
2022/12/11 00:15:52;;;;;;;7.03;5.65;;;;;;;17.48;40.53;101079.53;5044650;28;20056;-61
2022/12/11 00:18:18;;;;;;;8.15;5.40;;;;;;;17.48;40.59;101079.53;5045360;28;20033;-61
2022/12/11 00:20:43;;;;;;;8.25;5.40;;;;;;;17.46;40.44;101071.63;5045379;28;20028;-62
2022/12/11 00:23:09;;;;;;;7.88;5.20;;;;;;;17.47;40.41;101070.63;5045335;28;20100;-62
2022/12/11 00:25:40;;;;;;;7.97;5.50;;;;;;;17.46;40.53;101068.94;5045411;28;20026;-61
2022/12/11 00:28:05;;;;;;;8.18;5.13;;;;;;;17.46;40.48;101074.31;5045140;28;20052;-61
2022/12/11 00:30:30;;;;;;;9.15;5.75;;;;;;;17.45;40.61;101069.91;5044968;28;20029;-61
2022/12/11 00:32:56;;;;;;;7.55;5.50;;;;;;;17.47;40.46;101072.47;5045534;28;20029;-61
2022/12/11 00:35:21;;;;;;;6.95;4.82;;;;;;;17.46;40.35;101068.94;5044521;28;20025;-61
2022/12/11 00:37:46;;;;;;;8.20;4.78;;;;;;;17.46;40.61;101071.63;5045411;28;20065;-61
2022/12/11 00:40:11;;;;;;;9.63;5.63;;;;;;;17.40;40.63;101058.78;5044894;28;20033;-61
2022/12/11 00:42:37;;;;;;;7.00;4.70;;;;;;;17.46;40.61;101071.63;5038035;28;20429;-61
2022/12/11 00:45:03;;;;;;;7.03;5.03;;;;;;;17.45;40.42;101069.91;5044101;28;20025;-60
2022/12/11 00:47:28;;;;;;;9.50;5.72;;;;;;;17.41;40.48;101063.16;5044636;28;20105;-61
2022/12/11 00:49:53;;;;;;;5.82;4.53;;;;;;;17.46;40.50;101073.47;5044676;28;20036;-61
2022/12/11 00:52:18;;;;;;;5.68;4.35;;;;;;;17.45;40.65;101071.78;5045221;28;20030;-61
2022/12/11 00:54:44;;;;;;;6.85;5.05;;;;;;;17.38;40.49;101059.97;5044334;28;20026;-61
2022/12/11 00:57:09;;;;;;;6.93;4.97;;;;;;;17.44;40.38;101070.09;5045128;28;20026;-61
2022/12/11 00:59:35;;;;;;;8.45;5.50;;;;;;;17.44;40.59;101070.94;5044403;28;20029;-61
2022/12/11 01:02:00;;;;;;;6.97;5.00;;;;;;;17.44;40.61;101070.94;5044652;28;20067;-61
2022/12/11 01:04:25;;;;;;;7.88;5.63;;;;;;;17.44;40.36;101079.00;5044338;28;20029;-61
2022/12/11 01:06:50;;;;;;;6.53;4.57;;;;;;;17.44;40.47;101075.47;5045019;28;20036;-61
2022/12/11 01:11:59;;;;;;;7.50;4.75;;;;;;;17.44;40.23;101076.31;5045178;28;20059;-61
2022/12/11 01:14:25;;;;;;;7.65;4.97;;;;;;;17.37;40.60;101069.00;5043941;28;20063;-61
2022/12/11 01:16:50;;;;;;;6.82;4.40;;;;;;;17.43;40.65;101069.25;5043415;28;20033;-62
2022/12/11 01:19:15;;;;;;;7.50;5.50;;;;;;;17.42;40.47;101067.56;5044708;28;20111;-61
2022/12/11 01:21:41;;;;;;;6.97;4.63;;;;;;;17.33;40.62;101052.38;5045043;28;20026;-61
2022/12/11 01:24:06;;;;;;;5.65;4.38;;;;;;;17.43;40.56;101065.72;5044463;28;20434;-61
2022/12/11 01:26:31;;;;;;;5.70;4.53;;;;;;;17.43;40.17;101074.63;5045006;28;20023;-62
2022/12/11 01:28:56;;;;;;;6.18;4.57;;;;;;;17.43;40.56;101071.09;5044556;28;20028;-61
2022/12/11 01:31:22;;;;;;;7.10;4.70;;;;;;;17.42;40.53;101074.78;5043147;28;20120;-60
2022/12/11 01:33:47;;;;;;;7.50;5.57;;;;;;;17.37;40.44;101059.09;5044492;28;20056;-60
2022/12/11 01:36:16;;;;;;;7.07;4.05;;;;;;;17.41;40.47;101068.53;5044775;28;20029;-61
2022/12/11 01:38:41;;;;;;;7.00;4.40;;;;;;;17.41;40.37;101073.91;5044376;28;20045;-61
2022/12/11 01:41:07;;;;;;;6.97;5.18;;;;;;;17.42;40.49;101072.09;5044673;28;20025;-60
2022/12/11 01:43:32;;;;;;;7.15;5.00;;;;;;;17.41;40.53;101071.22;5044242;28;20056;-61
2022/12/11 01:45:57;;;;;;;7.93;5.28;;;;;;;17.39;40.59;101067.88;5043661;28;20029;-60
2022/12/11 01:48:26;;;;;;;6.40;4.70;;;;;;;17.39;40.55;101067.88;5044429;28;20049;-61
2022/12/11 01:50:54;;;;;;;6.28;4.75;;;;;;;17.41;40.51;101065.84;5043238;28;20028;-61
2022/12/11 01:53:28;;;;;;;6.45;4.88;;;;;;;17.41;40.43;101065.84;5043073;28;20116;-61
2022/12/11 01:55:54;;;;;;;6.28;4.70;;;;;;;17.40;40.44;101064.16;5043409;28;20047;-62
2022/12/11 01:58:22;;;;;;;7.38;4.45;;;;;;;17.40;40.60;101058.78;5043026;28;20029;-61
2022/12/11 02:00:47;;;;;;;7.05;4.78;;;;;;;17.40;40.67;101064.16;5042663;28;20028;-61
2022/12/11 02:03:13;;;;;;;7.25;4.95;;;;;;;17.39;40.62;101067.88;5044337;28;20053;-61
2022/12/11 02:05:38;;;;;;;5.95;4.63;;;;;;;17.38;40.57;101058.13;5044160;28;20029;-62
2022/12/11 02:08:04;;;;;;;6.32;4.60;;;;;;;17.40;40.54;101064.16;5041357;28;20026;-61
2022/12/11 02:10:57;;;;;;;7.68;5.22;;;;;;;17.38;40.49;101060.81;5044220;28;20052;-61
2022/12/11 02:13:30;;;;;;;6.53;4.65;;;;;;;17.39;40.64;101064.34;5042751;28;20092;-61
2022/12/11 02:16:05;;;;;;;7.05;4.82;;;;;;;17.32;40.49;101047.97;5043408;28;20101;-61
2022/12/11 02:18:35;;;;;;;6.18;4.43;;;;;;;17.38;40.39;101055.44;5042847;28;20040;-61
2022/12/11 02:21:10;;;;;;;6.45;4.65;;;;;;;17.38;40.55;101059.97;5043124;28;20025;-61
2022/12/11 02:23:45;;;;;;;7.38;4.80;;;;;;;17.38;40.36;101059.97;5043935;28;20516;-61
2022/12/11 02:26:35;;;;;;;7.25;5.05;;;;;;;17.38;40.51;101051.91;5043063;28;20454;-61
2022/12/11 02:29:05;;;;;;;7.43;4.82;;;;;;;17.24;40.66;101034.47;5047953;28;20029;-61
2022/12/11 02:31:37;;;;;;;6.80;4.95;;;;;;;17.37;40.60;101053.72;5046574;28;20038;-61
2022/12/11 02:34:12;;;;;;;7.13;4.82;;;;;;;17.38;40.56;101058.13;5029850;28;20029;-61
2022/12/11 02:36:40;;;;;;;6.72;4.85;;;;;;;17.38;40.49;101057.28;5046912;28;20029;-61
2022/12/11 02:39:08;;;;;;;6.00;4.30;;;;;;;17.37;40.48;101055.56;5047412;28;20536;-61
2022/12/11 02:41:34;;;;;;;6.85;4.47;;;;;;;17.37;40.50;101048.34;5046416;28;20037;-61
2022/12/11 02:44:01;;;;;;;7.40;5.03;;;;;;;17.38;40.41;101050.06;5045824;28;20126;-61
2022/12/11 02:46:28;;;;;;;7.10;4.90;;;;;;;17.37;40.40;101051.03;5046619;28;20029;-61
2022/12/11 02:48:54;;;;;;;5.90;4.47;;;;;;;17.34;40.50;101047.84;5047637;28;20064;-61
2022/12/11 02:51:24;;;;;;;5.80;4.40;;;;;;;17.31;40.36;101037.38;5047277;28;20036;-61
2022/12/11 02:53:50;;;;;;;6.55;4.35;;;;;;;17.34;40.30;101043.31;5046986;28;20056;-61
2022/12/11 02:56:20;;;;;;;6.18;4.40;;;;;;;17.37;40.48;101051.03;5047260;28;20455;-61
2022/12/11 02:58:48;;;;;;;6.38;4.50;;;;;;;17.37;40.44;101042.13;5047137;28;20025;-61
2022/12/11 03:01:13;;;;;;;6.53;5.07;;;;;;;17.37;40.44;101036.75;5045557;28;20029;-60
2022/12/11 03:03:38;;;;;;;6.45;4.82;;;;;;;17.39;40.44;101040.16;5045337;28;20134;-60
2022/12/11 03:06:04;;;;;;;5.55;4.10;;;;;;;17.38;40.45;101042.00;5047265;28;20037;-59
2022/12/11 03:08:30;;;;;;;5.65;4.45;;;;;;;17.38;40.25;101039.31;5046755;28;20040;-60
2022/12/11 03:10:55;;;;;;;6.80;4.45;;;;;;;17.39;40.65;101034.78;5045741;28;20026;-60
2022/12/11 03:13:21;;;;;;;5.25;4.43;;;;;;;17.38;40.36;101028.56;5046548;28;20030;-60
2022/12/11 03:16:22;;;;;;;5.72;4.07;;;;;;;17.38;40.33;101033.94;5045905;28;20025;-60
2022/12/11 03:19:10;;;;;;;7.60;4.95;;;;;;;17.30;40.53;101014.22;4985765;28;20065;-60
2022/12/11 03:21:43;;;;;;;6.10;4.65;;;;;;;17.36;40.50;101030.53;4985726;28;20043;-60
2022/12/11 03:24:17;;;;;;;5.43;4.10;;;;;;;17.38;40.40;101027.72;4969255;28;20031;-60
2022/12/11 03:26:48;;;;;;;5.75;4.40;;;;;;;17.38;40.42;101027.72;4985614;28;20163;-60
2022/12/11 03:29:20;;;;;;;5.80;4.22;;;;;;;17.37;40.38;101021.47;4953339;28;20606;-60
2022/12/11 03:31:53;;;;;;;7.90;5.30;;;;;;;17.39;40.57;101026.72;4985264;28;20126;-59
2022/12/11 03:34:24;;;;;;;6.53;4.22;;;;;;;17.37;40.42;101024.16;4968673;28;20074;-60
2022/12/11 03:36:51;;;;;;;7.85;5.20;;;;;;;17.29;40.25;101012.50;4969316;28;20031;-60
2022/12/11 03:39:21;;;;;;;6.68;4.35;;;;;;;17.38;40.56;101025.88;4968313;28;20043;-60
2022/12/11 03:41:47;;;;;;;7.40;4.78;;;;;;;17.38;40.43;101033.09;4969541;28;20541;-60
2022/12/11 03:44:13;;;;;;;7.50;5.10;;;;;;;17.37;40.31;101034.91;4968469;28;20023;-60
2022/12/11 03:46:40;;;;;;;7.57;4.72;;;;;;;17.38;40.41;101033.94;4968024;28;20057;-60
2022/12/11 03:49:14;;;;;;;6.50;4.25;;;;;;;17.36;40.45;101032.38;4969251;28;20050;-60
2022/12/11 03:51:41;;;;;;;6.65;4.18;;;;;;;17.36;40.36;101024.31;4988356;28;20042;-60
2022/12/11 03:54:06;;;;;;;6.68;4.85;;;;;;;17.39;40.49;101030.25;5044747;28;20029;-60
2022/12/11 03:56:33;;;;;;;7.20;4.70;;;;;;;17.38;40.41;101028.56;5046163;28;20057;-60
2022/12/11 03:58:59;;;;;;;6.60;4.30;;;;;;;17.40;40.27;101031.09;5044756;28;20044;-60
2022/12/11 04:01:24;;;;;;;6.68;4.80;;;;;;;17.39;40.38;101032.09;5045721;28;20034;-60
2022/12/11 04:03:49;;;;;;;7.68;4.85;;;;;;;17.39;40.48;101030.25;5045369;28;20027;-60
2022/12/11 04:06:14;;;;;;;7.13;4.93;;;;;;;17.39;40.45;101030.25;5045886;28;20026;-60
2022/12/11 04:08:40;;;;;;;6.00;4.28;;;;;;;17.39;40.37;101024.88;5045680;28;20021;-60
2022/12/11 04:15:00;;;;;;;7.68;5.45;;;;;;;17.34;40.47;101012.91;5045099;28;20126;-59
2022/12/11 04:16:34;;;;;;;7.28;4.63;;;;;;;17.41;40.31;101024.69;5044581;28;20033;-59
2022/12/11 04:24:27;;;;;;;6.55;4.32;;;;;;;17.41;40.30;101016.63;5045549;28;20059;-60
2022/12/11 04:26:53;;;;;;;6.32;4.32;;;;;;;17.41;40.36;101017.47;5045719;28;20037;-60
2022/12/11 04:29:18;;;;;;;7.38;4.75;;;;;;;17.41;40.24;101006.72;5045367;28;20036;-60
2022/12/11 04:31:44;;;;;;;6.15;4.00;;;;;;;17.42;40.47;101015.66;5044917;28;20584;-60
2022/12/11 04:34:10;;;;;;;6.57;4.50;;;;;;;17.40;40.23;101007.72;5044832;28;20104;-60
2022/12/11 04:36:35;;;;;;;7.07;5.63;;;;;;;17.41;40.21;101009.41;5044063;28;20029;-60
2022/12/11 04:39:00;;;;;;;6.47;4.63;;;;;;;17.40;40.11;101005.03;5045223;28;20025;-60
2022/12/11 04:41:26;;;;;;;7.25;4.68;;;;;;;17.41;40.25;100995.13;5045396;28;20026;-60
2022/12/11 04:43:51;;;;;;;7.05;4.32;;;;;;;17.40;40.21;100994.28;5045112;28;20478;-60
2022/12/11 04:46:21;;;;;;;6.75;4.55;;;;;;;17.43;40.35;101007.44;5044498;28;20025;-60
2022/12/11 04:48:47;;;;;;;6.75;4.80;;;;;;;17.37;40.33;100999.13;5045108;28;20042;-61
2022/12/11 04:51:13;;;;;;;6.40;4.22;;;;;;;17.42;40.42;101005.75;5045207;28;20055;-60
2022/12/11 04:53:39;;;;;;;6.88;4.57;;;;;;;17.42;40.35;101008.44;5044563;28;20017;-60
2022/12/11 04:56:06;;;;;;;7.30;4.85;;;;;;;17.42;40.36;101002.22;5043984;28;20124;-60
2022/12/11 04:58:31;;;;;;;7.35;5.22;;;;;;;17.43;40.39;100998.53;5043858;28;20025;-61
2022/12/11 05:00:56;;;;;;;6.00;4.35;;;;;;;17.42;40.37;100997.69;5044621;28;20032;-60
2022/12/11 05:03:22;;;;;;;6.47;4.45;;;;;;;17.43;40.23;100999.38;5044628;28;20022;-61
2022/12/11 05:05:51;;;;;;;7.50;4.50;;;;;;;17.35;40.33;100982.34;5044969;28;20021;-61
2022/12/11 05:08:18;;;;;;;7.18;5.20;;;;;;;17.37;40.10;100980.31;5044977;28;20027;-61
2022/12/11 05:10:44;;;;;;;7.32;4.85;;;;;;;17.44;40.17;100992.97;5044880;28;20029;-61
2022/12/11 05:13:09;;;;;;;7.50;4.70;;;;;;;17.44;40.19;100994.81;5044599;28;20022;-60
2022/12/11 05:15:38;;;;;;;6.57;4.60;;;;;;;17.44;40.26;100981.38;5043888;28;20049;-60
2022/12/11 05:18:03;;;;;;;7.28;4.72;;;;;;;17.44;40.06;100987.59;5045106;28;20036;-61
2022/12/11 05:20:28;;;;;;;6.68;4.72;;;;;;;17.42;40.22;100978.03;5044565;28;20614;-61
2022/12/11 05:22:54;;;;;;;7.03;4.93;;;;;;;17.45;40.29;100972.31;5060261;28;20040;-60
2022/12/11 05:25:19;;;;;;;6.70;4.82;;;;;;;17.45;40.13;100985.75;5044568;28;20041;-60
2022/12/11 05:27:44;;;;;;;6.72;4.40;;;;;;;17.42;40.22;100969.97;5044963;28;20033;-60
2022/12/11 05:30:10;;;;;;;6.97;4.63;;;;;;;17.44;40.33;100987.59;5044656;28;20025;-60
2022/12/11 05:32:35;;;;;;;7.00;4.72;;;;;;;17.46;40.08;100991.00;5044172;28;20049;-60
2022/12/11 05:35:00;;;;;;;6.50;4.53;;;;;;;17.43;40.10;100979.72;5044063;28;20497;-60
2022/12/11 05:37:26;;;;;;;6.75;4.50;;;;;;;17.45;40.19;100989.28;5044823;28;20038;-60
2022/12/11 05:39:51;;;;;;;6.85;4.70;;;;;;;17.46;40.37;100984.78;5044570;28;20029;-61
2022/12/11 05:42:16;;;;;;;7.25;5.35;;;;;;;17.47;40.44;100989.16;5044894;28;20025;-60
2022/12/11 05:44:41;;;;;;;5.30;3.75;;;;;;;17.46;40.29;100992.84;5044205;28;20045;-61
2022/12/11 05:47:07;;;;;;;5.45;4.00;;;;;;;17.47;40.21;100997.22;5044003;28;20049;-60
2022/12/11 05:49:33;;;;;;;6.05;4.55;;;;;;;17.46;40.14;100998.22;5044668;28;20043;-60
2022/12/11 05:51:58;;;;;;;6.00;4.40;;;;;;;17.46;40.14;100996.38;5044630;28;20084;-60
2022/12/11 05:54:23;;;;;;;5.68;4.10;;;;;;;17.47;40.41;100995.38;5044021;28;20059;-60
2022/12/11 05:56:50;;;;;;;5.25;3.80;;;;;;;17.48;40.17;100991.66;5044747;28;20037;-60
2022/12/11 05:59:15;;;;;;;6.32;4.65;;;;;;;17.48;40.21;100996.19;5044118;28;20026;-61
2022/12/11 06:01:42;;;;;;;5.80;4.10;;;;;;;17.48;40.30;100990.81;5044947;28;20024;-60
2022/12/11 06:04:08;;;;;;;6.43;4.20;;;;;;;17.49;40.23;100989.81;5046885;28;20048;-61
2022/12/11 06:06:34;;;;;;;6.60;4.47;;;;;;;17.48;40.49;100988.97;5047966;28;20021;-60
2022/12/11 06:09:00;;;;;;;8.90;5.07;;;;;;;17.48;40.24;100988.97;5041913;28;20921;-61
2022/12/11 06:11:27;;;;;;;6.15;4.57;;;;;;;17.47;40.11;100984.59;5063659;28;20467;-60
2022/12/11 06:13:53;;;;;;;5.10;3.85;;;;;;;17.49;40.16;100993.34;5047258;28;20021;-60
2022/12/11 06:16:19;;;;;;;5.20;4.22;;;;;;;17.50;40.11;100988.84;5047107;28;20026;-60
2022/12/11 06:18:45;;;;;;;5.53;4.10;;;;;;;17.50;40.12;100988.84;5047743;28;20041;-61
2022/12/11 06:21:20;;;;;;;6.72;4.18;;;;;;;17.51;40.29;100984.31;5047886;28;20067;-61
2022/12/11 06:23:47;;;;;;;5.88;4.20;;;;;;;17.53;40.09;100982.28;5046957;28;20047;-60
2022/12/11 06:26:14;;;;;;;5.28;4.07;;;;;;;17.52;40.21;100989.50;5048107;28;20036;-59
2022/12/11 06:28:39;;;;;;;6.15;4.40;;;;;;;17.52;40.32;100984.13;5047775;28;20056;-59
2022/12/11 06:31:05;;;;;;;6.50;4.60;;;;;;;17.53;40.11;100980.44;5047278;28;20386;-60
2022/12/11 06:33:31;;;;;;;5.72;4.13;;;;;;;17.54;40.21;100987.50;5047612;28;20057;-60
2022/12/11 06:36:00;;;;;;;6.35;4.20;;;;;;;17.54;40.10;100982.13;5047252;28;20080;-60
2022/12/11 06:38:25;;;;;;;6.18;4.20;;;;;;;17.55;40.24;100985.69;5047738;28;20032;-60
2022/12/11 06:40:58;;;;;;;5.82;4.50;;;;;;;17.54;40.31;100976.75;5047174;28;20418;-59
2022/12/11 06:43:24;;;;;;;5.95;4.32;;;;;;;17.57;40.45;100972.91;5047338;28;20032;-59
2022/12/11 06:45:50;;;;;;;6.30;4.28;;;;;;;17.49;40.39;100971.84;5045841;28;20088;-59
2022/12/11 06:48:16;;;;;;;6.55;4.55;;;;;;;17.58;40.47;100979.97;5046931;28;20053;-60
2022/12/11 06:50:41;;;;;;;5.65;4.10;;;;;;;17.58;40.42;100975.44;5041694;28;20046;-59
2022/12/11 06:53:06;;;;;;;6.60;4.28;;;;;;;17.59;40.26;100973.59;5042508;28;20032;-60
2022/12/11 06:55:35;;;;;;;7.60;3.95;;;;;;;17.60;40.59;100972.59;5047385;28;20052;-60
2022/12/11 06:58:00;;;;;;;5.88;4.47;;;;;;;17.60;40.21;100970.75;5047455;28;20022;-59
2022/12/11 07:00:26;;;;;;;7.43;4.25;;;;;;;17.62;40.45;100978.66;5047025;28;20033;-59
2022/12/11 07:02:51;;;;;;;7.25;4.78;;;;;;;17.62;40.56;100976.78;5047009;28;20072;-59
2022/12/11 07:05:17;;;;;;;6.13;4.00;;;;;;;17.61;40.72;100985.03;5046850;28;20120;-60
2022/12/11 07:07:42;;;;;;;6.18;4.28;;;;;;;17.64;40.70;100990.94;5046556;28;20056;-59
2022/12/11 07:10:08;;;;;;;6.30;4.25;;;;;;;17.66;40.77;100990.78;5026923;28;20033;-59
2022/12/11 07:12:34;;;;;;;6.30;4.65;;;;;;;17.65;40.97;100998.00;5036880;28;20028;-60
2022/12/11 07:14:59;;;;;;;4.90;3.92;;;;;;;17.67;41.16;100998.69;5037076;28;20080;-60
2022/12/11 07:17:24;;;;;;;6.68;4.10;;;;;;;17.68;41.33;100999.53;5036693;28;20089;-59
2022/12/11 07:19:50;;;;;;;6.05;4.03;;;;;;;17.69;41.06;101001.22;5036355;28;20093;-60
2022/12/11 07:22:15;;;;;;;5.75;4.18;;;;;;;17.70;41.08;101009.13;5039181;28;20049;-60
2022/12/11 07:24:40;;;;;;;5.35;4.03;;;;;;;17.70;41.27;101014.50;5034758;28;20029;-59
2022/12/11 07:27:06;;;;;;;6.65;4.57;;;;;;;17.71;41.25;101008.13;5037160;28;20094;-60
2022/12/11 07:29:31;;;;;;;6.35;4.88;;;;;;;17.74;41.30;101009.69;5036205;28;20383;-61
2022/12/11 07:31:56;;;;;;;5.38;4.03;;;;;;;17.74;41.31;101002.44;5035007;28;20041;-58
2022/12/11 07:34:22;;;;;;;6.13;4.57;;;;;;;17.74;41.15;101007.84;5036824;28;20032;-59
2022/12/11 07:36:47;;;;;;;6.18;4.65;;;;;;;17.76;41.43;101014.91;5038552;28;20040;-59
2022/12/11 07:39:12;;;;;;;5.88;4.28;;;;;;;17.75;41.19;101014.06;5035813;28;20529;-65
2022/12/11 07:41:38;;;;;;;6.82;4.30;;;;;;;17.76;41.11;101013.06;5037290;28;20163;-62
2022/12/11 07:44:04;;;;;;;6.03;3.58;;;;;;;17.77;41.05;101019.28;5034809;28;20030;-59
2022/12/11 07:46:31;;;;;;;5.95;4.35;;;;;;;17.77;41.21;101019.28;5050870;28;20100;-61
2022/12/11 07:48:59;;;;;;;5.30;3.83;;;;;;;17.78;41.26;101020.97;5036766;28;20026;-59
2022/12/11 07:51:28;;;;;;;10.90;5.03;;;;;;;17.76;41.23;101014.91;5041492;28;20033;-59
2022/12/11 07:53:54;;;;;;;;;;;;;;;17.78;41.38;101024.50;5035470;28;20025;-59
2022/12/11 07:56:20;;;;;;;5.90;4.43;;;;;;;17.78;41.33;101024.50;5039237;28;19909;-59
2022/12/11 07:58:46;;;;;;;5.22;4.07;;;;;;;17.77;41.14;101017.44;5035359;28;20399;-59
2022/12/11 08:01:12;;;;;;;6.00;4.32;;;;;;;17.77;41.34;101020.13;5034932;28;20025;-59
2022/12/11 08:03:38;;;;;;;6.38;4.75;;;;;;;17.78;41.30;101016.44;5036604;28;20087;-59
2022/12/11 08:06:03;;;;;;;5.00;4.05;;;;;;;17.75;41.45;101008.69;5034192;28;20046;-59
2022/12/11 08:08:29;;;;;;;6.03;4.30;;;;;;;17.79;41.52;101012.72;5036547;28;20105;-59
2022/12/11 08:10:54;;;;;;;9.25;4.43;;;;;;;17.79;41.42;101010.03;5061321;28;20048;-59
2022/12/11 08:13:19;;;;;;;6.75;4.53;;;;;;;17.80;41.36;101001.00;5040736;28;20030;-60
2022/12/11 08:15:45;;;;;;;6.60;5.28;;;;;;;17.80;41.65;101003.69;5034798;28;20026;-60
2022/12/11 08:18:10;;;;;;;5.70;4.10;;;;;;;17.80;41.34;101003.69;5037434;28;20068;-59
2022/12/11 08:20:38;;;;;;;7.10;4.72;;;;;;;17.80;41.34;100995.63;5035894;28;20029;-59
2022/12/11 08:23:03;;;;;;;9.45;5.55;;;;;;;17.78;41.41;100999.47;5050904;28;20018;-59
2022/12/11 08:25:28;;;;;;;6.45;4.63;;;;;;;17.82;41.33;101006.22;5033488;28;20022;-59
2022/12/11 08:27:54;;;;;;;6.57;4.65;;;;;;;17.79;41.35;101003.81;5039817;28;20057;-59
2022/12/11 08:30:19;;;;;;;7.90;4.70;;;;;;;17.81;41.31;101016.13;5036410;28;20026;-60
2022/12/11 08:32:44;;;;;;;6.40;4.70;;;;;;;17.81;41.50;101016.13;5028676;28;20064;-60
2022/12/11 08:35:10;;;;;;;6.88;5.07;;;;;;;17.81;41.28;101016.13;5025120;28;20026;-60
2022/12/11 08:37:35;;;;;;;6.70;4.35;;;;;;;17.82;41.37;101019.66;5042251;28;20040;-59
2022/12/11 08:40:00;;;;;;;7.35;4.72;;;;;;;17.81;41.06;101012.59;5045180;28;20029;-60
2022/12/11 08:42:26;;;;;;;9.27;5.13;;;;;;;17.81;41.25;101018.81;5045391;28;20072;-59
2022/12/11 08:44:51;;;;;;;6.88;4.72;;;;;;;17.80;41.12;101016.25;5044630;28;20021;-60
2022/12/11 08:47:16;;;;;;;5.32;4.22;;;;;;;17.81;41.33;101024.19;5044273;28;20045;-59
2022/12/11 08:49:42;;;;;;;6.53;4.25;;;;;;;17.82;41.13;101023.19;5044713;28;20036;-60
2022/12/11 08:52:07;;;;;;;8.35;4.72;;;;;;;17.81;40.96;101016.13;5045106;28;20022;-59
2022/12/11 08:54:32;;;;;;;7.55;5.32;;;;;;;17.84;40.93;101020.31;5044581;28;20029;-59
2022/12/11 08:56:58;;;;;;;6.90;5.03;;;;;;;17.83;41.33;101015.94;5045330;28;20030;-59
2022/12/11 08:59:24;;;;;;;7.43;4.60;;;;;;;17.84;41.12;101010.44;5044949;28;20029;-59
2022/12/11 09:01:50;;;;;;;6.88;5.43;;;;;;;17.78;41.60;101002.16;5044594;28;20033;-60
2022/12/11 09:04:15;;;;;;;9.25;5.63;;;;;;;17.83;42.15;101006.03;5044727;28;20025;-59
2022/12/11 09:06:40;;;;;;;7.78;5.20;;;;;;;17.85;43.19;101001.34;5044856;28;20033;-59
2022/12/11 09:09:06;;;;;;;7.60;5.25;;;;;;;17.87;43.94;101002.03;5032620;28;20100;-59
2022/12/11 09:11:34;;;;;;;10.90;5.60;;;;;;;17.92;45.45;101001.53;5025161;28;20084;-58
2022/12/11 09:14:00;;;;;;;9.10;5.35;;;;;;;17.92;46.80;101004.22;5024572;28;20046;-59
2022/12/11 09:16:26;;;;;;;10.30;5.22;;;;;;;17.92;47.67;101004.22;5024033;28;20021;-59
2022/12/11 09:18:53;;;;;;;8.65;6.10;;;;;;;17.89;47.50;100999.19;5025710;28;20030;-59
2022/12/11 09:21:20;;;;;;;12.02;5.95;;;;;;;17.81;46.88;100991.09;5044143;28;20084;-59
2022/12/11 09:23:46;;;;;;;11.77;5.15;;;;;;;17.87;46.22;101007.41;5044435;28;20101;-59
2022/12/11 09:26:15;;;;;;;8.15;5.78;;;;;;;17.89;45.88;101008.09;5044545;28;20026;-59
2022/12/11 09:28:41;;;;;;;9.43;6.43;;;;;;;17.85;45.96;100998.66;5044688;28;20021;-59
2022/12/11 09:31:17;;;;;;;10.75;5.68;;;;;;;17.89;45.69;100994.66;5043761;28;20045;-59
2022/12/11 09:33:43;;;;;;;7.70;5.90;;;;;;;17.92;45.45;100999.69;5044372;28;20052;-59
2022/12/11 09:36:09;;;;;;;9.93;6.03;;;;;;;17.93;45.18;101000.56;5044509;28;20097;-59
2022/12/11 09:38:35;;;;;;;9.50;5.93;;;;;;;17.93;45.32;101004.09;5048707;28;20047;-59
2022/12/11 09:41:01;;;;;;;11.10;5.63;;;;;;;17.93;45.00;101001.41;5048335;28;20065;-59
2022/12/11 09:43:40;;;;;;;11.23;5.05;;;;;;;17.95;44.92;101007.44;5047097;28;20164;-59
2022/12/11 09:46:12;;;;;;;;;;;;;;;17.95;45.04;101004.75;5046549;28;20022;-60
2022/12/11 09:48:39;;;;;;;9.25;5.03;;;;;;;17.94;44.89;101008.47;5048219;28;19917;-59
2022/12/11 09:51:13;;;;;;;8.75;5.13;;;;;;;17.93;45.01;101006.78;5048175;28;20029;-59
2022/12/11 09:53:38;;;;;;;7.07;5.22;;;;;;;17.93;44.60;101006.78;5048329;28;20107;-59
2022/12/11 09:56:12;;;;;;;6.18;4.68;;;;;;;17.92;44.70;101009.63;5048267;28;20037;-61
2022/12/11 09:59:02;;;;;;;7.18;4.90;;;;;;;17.93;44.75;101001.41;5042099;28;20083;-60
2022/12/11 10:02:11;;;;;;;8.35;5.03;;;;;;;17.93;44.73;101004.09;5032796;28;20029;-62
2022/12/11 10:05:03;;;;;;;5.90;4.07;;;;;;;17.97;44.85;101013.53;5027343;28;20049;-60
2022/12/11 10:07:47;;;;;;;5.80;4.57;;;;;;;18.04;44.31;101015.56;5036919;28;20482;-60
2022/12/11 10:10:25;;;;;;;6.63;4.10;;;;;;;18.08;44.21;101017.78;5039253;28;20044;-60
2022/12/11 10:13:19;;;;;;;7.60;4.50;;;;;;;18.09;44.21;101018.63;5047580;28;20021;-59
2022/12/11 10:16:00;;;;;;;6.20;4.22;;;;;;;18.03;44.20;101003.13;5047049;28;20090;-60
2022/12/11 10:18:27;;;;;;;7.18;4.10;;;;;;;18.09;43.87;101013.22;5066309;28;20025;-59
2022/12/11 10:20:52;;;;;;;5.82;4.10;;;;;;;18.04;43.80;101005.66;5047426;28;20026;-59
2022/12/11 10:23:21;;;;;;;6.35;4.15;;;;;;;18.09;43.87;101018.63;5051423;28;20027;-58
2022/12/11 10:25:51;;;;;;;6.28;4.40;;;;;;;18.07;43.89;101013.41;5065848;28;20402;-60
2022/12/11 10:28:18;;;;;;;8.57;4.68;;;;;;;18.10;43.98;101014.94;5043586;28;20040;-59
2022/12/11 10:31:17;;;;;;;5.22;4.15;;;;;;;18.08;43.73;101007.00;5027261;28;20018;-59
2022/12/11 10:33:52;;;;;;;5.13;4.03;;;;;;;18.10;43.67;101014.94;5025839;28;20036;-59
2022/12/11 10:36:26;;;;;;;5.10;3.90;;;;;;;18.06;43.80;100997.44;5027352;28;20038;-60
2022/12/11 10:38:51;;;;;;;7.88;4.50;;;;;;;18.09;44.01;100991.72;5027554;28;20049;-59
2022/12/11 10:41:20;;;;;;;5.78;3.90;;;;;;;18.09;43.60;100999.78;5027313;28;20037;-59
2022/12/11 10:43:50;;;;;;;7.35;4.32;;;;;;;18.09;43.68;100997.94;5027533;28;20021;-59
2022/12/11 10:46:31;;;;;;;6.03;3.90;;;;;;;18.08;43.73;101000.78;5026234;28;20021;-60
2022/12/11 10:48:59;;;;;;;6.35;4.40;;;;;;;18.06;43.70;101008.19;5032890;28;20060;-60
2022/12/11 10:51:32;;;;;;;4.97;3.83;;;;;;;18.09;43.38;100992.53;5046476;28;20036;-60
2022/12/11 10:54:07;;;;;;;5.30;3.55;;;;;;;18.11;43.32;101003.16;5046825;28;20025;-59
2022/12/11 10:56:34;;;;;;;4.88;3.83;;;;;;;18.13;43.21;100993.06;5045060;28;20108;-60
2022/12/11 10:59:00;;;;;;;6.18;3.88;;;;;;;18.12;43.27;100997.63;5046913;28;20037;-59
2022/12/11 11:01:30;;;;;;;7.10;4.10;;;;;;;18.13;43.31;100998.47;5046359;28;20037;-59
2022/12/11 11:04:24;;;;;;;7.05;4.05;;;;;;;18.13;43.15;101003.84;5046782;28;20076;-60
2022/12/11 11:07:07;;;;;;;5.15;4.05;;;;;;;18.14;42.99;100997.47;5046653;28;20026;-60
2022/12/11 11:09:34;;;;;;;7.57;4.95;;;;;;;18.13;42.81;100990.38;5045255;28;20075;-60
2022/12/11 11:12:00;;;;;;;7.15;4.63;;;;;;;18.15;42.86;100991.09;5046740;28;20025;-60
2022/12/11 11:14:26;;;;;;;9.30;5.45;;;;;;;18.15;42.70;100991.09;5046391;28;20034;-60
2022/12/11 11:16:54;;;;;;;6.65;5.00;;;;;;;18.15;42.78;100983.00;5045777;28;20471;-60
2022/12/11 11:19:28;;;;;;;7.85;5.60;;;;;;;18.15;42.76;100983.00;5045029;28;20433;-60
2022/12/11 11:21:57;;;;;;;8.05;5.03;;;;;;;18.13;42.74;100976.94;5045004;28;20449;-60
2022/12/11 11:24:28;;;;;;;7.72;4.90;;;;;;;18.11;42.85;100982.47;5044966;28;20471;-60
2022/12/11 11:26:54;;;;;;;9.75;5.28;;;;;;;18.08;42.83;100974.72;5046640;28;20040;-60
2022/12/11 11:29:29;;;;;;;6.82;4.53;;;;;;;18.10;42.73;100959.28;5044989;28;20022;-60
2022/12/11 11:31:55;;;;;;;6.70;4.95;;;;;;;18.10;42.51;100964.66;5045771;28;20052;-60
2022/12/11 11:34:21;;;;;;;8.20;5.03;;;;;;;18.08;42.57;100966.66;5045778;28;20029;-61
2022/12/11 11:36:56;;;;;;;7.35;5.25;;;;;;;18.08;42.58;100961.28;5045352;28;20036;-61
2022/12/11 11:39:24;;;;;;;6.10;4.60;;;;;;;18.10;42.60;100964.66;5061048;28;20021;-61